Time;durP1;ratioP1;P1;durP2;ratioP2;P2;SDS_P1;SDS_P2;PMS_P1;PMS_P2;Temp;Humidity;BMP_temperature;BMP_pressure;BME280_temperature;BME280_humidity;BME280_pressure;Samples;Min_cycle;Max_cycle;Signal;HPM_P1;HPM_P2
2023/09/04 00:01:59;;;;;;;1.10;0.60;;;23.00;79.00;;;;;;4967493;28;20093;-73
2023/09/04 00:04:25;;;;;;;0.65;0.65;;;23.00;79.10;;;;;;4968275;28;20487;-73
2023/09/04 00:06:51;;;;;;;0.65;0.65;;;23.00;79.10;;;;;;4966857;28;20069;-73
2023/09/04 00:09:16;;;;;;;0.82;0.47;;;23.10;79.10;;;;;;4966621;28;20039;-74
2023/09/04 00:11:42;;;;;;;0.75;0.75;;;23.10;79.10;;;;;;4967189;28;20493;-74
2023/09/04 00:14:07;;;;;;;0.60;0.60;;;23.10;79.10;;;;;;4963474;28;20456;-74
2023/09/04 00:16:33;;;;;;;0.60;0.60;;;23.10;79.10;;;;;;4968412;28;20054;-74
2023/09/04 00:18:58;;;;;;;0.75;0.75;;;23.00;79.80;;;;;;4968302;28;20042;-74
2023/09/04 00:21:25;;;;;;;0.63;0.63;;;23.00;79.00;;;;;;4965422;28;20125;-74
2023/09/04 00:23:50;;;;;;;0.70;0.70;;;23.00;79.00;;;;;;4966116;28;20042;-74
2023/09/04 00:26:16;;;;;;;0.52;0.52;;;23.10;79.00;;;;;;4966897;28;20051;-74
2023/09/04 00:28:41;;;;;;;0.50;0.50;;;23.10;79.00;;;;;;4966234;28;20564;-74
2023/09/04 00:31:07;;;;;;;0.60;0.60;;;23.00;79.00;;;;;;4967774;28;20074;-74
2023/09/04 00:33:32;;;;;;;0.60;0.60;;;23.00;79.80;;;;;;4964354;28;20521;-74
2023/09/04 00:35:58;;;;;;;0.70;0.70;;;23.00;79.00;;;;;;4964884;28;20090;-74
2023/09/04 00:38:24;;;;;;;1.70;0.57;;;23.00;79.00;;;;;;4966063;28;20201;-74
2023/09/04 00:40:49;;;;;;;0.57;0.57;;;23.00;79.00;;;;;;4964899;28;20055;-73
2023/09/04 00:43:15;;;;;;;0.60;0.60;;;23.10;79.00;;;;;;4966177;28;20031;-74
2023/09/04 00:45:42;;;;;;;0.70;0.70;;;23.00;79.00;;;;;;4968104;28;20047;-74
2023/09/04 00:48:07;;;;;;;0.70;0.70;;;23.00;79.00;;;;;;4964076;28;20043;-74
2023/09/04 00:50:33;;;;;;;0.63;0.63;;;23.00;79.00;;;;;;4965988;28;20105;-74
2023/09/04 00:53:01;;;;;;;0.60;0.60;;;23.00;78.90;;;;;;4967558;28;20543;-74
2023/09/04 00:55:27;;;;;;;0.57;0.57;;;23.00;79.00;;;;;;4962979;28;23075;-73
2023/09/04 00:57:52;;;;;;;0.50;0.50;;;23.00;78.90;;;;;;4966896;28;20035;-74
2023/09/04 01:00:22;;;;;;;0.47;0.47;;;23.00;78.90;;;;;;4962615;28;20054;-73
2023/09/04 01:02:47;;;;;;;0.50;0.50;;;23.00;78.90;;;;;;4966034;28;20046;-74
2023/09/04 01:05:13;;;;;;;0.50;0.50;;;23.00;78.90;;;;;;4960349;28;20096;-74
2023/09/04 01:07:40;;;;;;;0.70;0.70;;;23.00;79.00;;;;;;4965508;28;20035;-74
2023/09/04 01:10:07;;;;;;;0.60;0.60;;;23.00;78.90;;;;;;4967912;28;20469;-74
2023/09/04 01:12:40;;;;;;;0.50;0.50;;;23.00;78.90;;;;;;4965373;28;20261;-74
2023/09/04 01:15:06;;;;;;;0.68;0.68;;;23.00;78.90;;;;;;4979688;28;20055;-74
2023/09/04 01:17:31;;;;;;;0.70;0.70;;;23.00;78.90;;;;;;4964176;28;20058;-73
2023/09/04 01:19:57;;;;;;;0.77;0.77;;;23.00;78.90;;;;;;4947280;28;20425;-73
2023/09/04 01:22:24;;;;;;;0.50;0.50;;;23.00;78.90;;;;;;4968046;28;20050;-74
2023/09/04 01:24:50;;;;;;;0.57;0.57;;;23.00;78.80;;;;;;4964668;28;20500;-74
2023/09/04 01:27:26;;;;;;;0.50;0.50;;;23.00;78.80;;;;;;4964787;28;20092;-73
2023/09/04 01:30:14;;;;;;;0.60;0.60;;;23.00;78.80;;;;;;4965383;28;20110;-74
2023/09/04 01:32:41;;;;;;;0.70;0.70;;;23.00;78.80;;;;;;4960575;28;20575;-73
2023/09/04 01:35:09;;;;;;;0.60;0.60;;;23.00;78.80;;;;;;4949894;28;20039;-74
2023/09/04 01:37:36;;;;;;;0.50;0.50;;;23.00;79.60;;;;;;4966118;28;20111;-73
2023/09/04 01:40:03;;;;;;;0.60;0.60;;;23.00;78.80;;;;;;4966730;28;20045;-73
2023/09/04 01:42:29;;;;;;;0.50;0.50;;;23.00;78.80;;;;;;4965883;28;20104;-73
2023/09/04 01:44:54;;;;;;;0.63;0.60;;;23.00;78.80;;;;;;4968806;28;20517;-74
2023/09/04 01:47:20;;;;;;;0.55;0.55;;;23.00;78.80;;;;;;4960490;28;20090;-74
2023/09/04 01:49:45;;;;;;;1.30;0.93;;;23.00;78.80;;;;;;4962325;28;20097;-74
2023/09/04 01:52:11;;;;;;;0.70;0.70;;;23.00;78.80;;;;;;4965985;28;20043;-74
2023/09/04 01:54:37;;;;;;;0.73;0.70;;;23.00;78.80;;;;;;4966604;28;20512;-74
2023/09/04 01:57:02;;;;;;;0.60;0.60;;;23.00;78.80;;;;;;4948628;28;20190;-74
2023/09/04 01:59:28;;;;;;;0.70;0.70;;;23.00;78.80;;;;;;4962747;28;20031;-74
2023/09/04 02:01:53;;;;;;;0.90;0.90;;;23.00;78.80;;;;;;4965261;28;20118;-74
2023/09/04 02:04:19;;;;;;;0.70;0.70;;;22.90;78.70;;;;;;4962728;28;20125;-74
2023/09/04 02:06:45;;;;;;;0.65;0.65;;;23.00;79.60;;;;;;4966803;28;20567;-74
2023/09/04 02:09:10;;;;;;;0.50;0.50;;;22.90;78.70;;;;;;4962881;28;20046;-74
2023/09/04 02:11:36;;;;;;;0.60;0.60;;;22.90;78.70;;;;;;4964401;28;20133;-74
2023/09/04 02:14:01;;;;;;;0.40;0.40;;;23.00;78.90;;;;;;4965532;28;20046;-74
2023/09/04 02:16:27;;;;;;;0.40;0.40;;;23.00;78.80;;;;;;4964195;28;20054;-73
2023/09/04 02:18:55;;;;;;;0.50;0.50;;;23.00;78.80;;;;;;4965571;28;20042;-73
2023/09/04 02:21:20;;;;;;;0.60;0.60;;;23.00;78.80;;;;;;4965179;28;20041;-74
2023/09/04 02:23:46;;;;;;;1.42;0.57;;;23.00;78.80;;;;;;4964979;28;20039;-74
2023/09/04 02:26:12;;;;;;;0.50;0.50;;;23.00;78.80;;;;;;4966711;28;20070;-73
2023/09/04 02:28:38;;;;;;;0.50;0.50;;;22.90;78.80;;;;;;4965962;28;20039;-73
2023/09/04 02:31:07;;;;;;;0.65;0.65;;;23.00;78.90;;;;;;4965146;28;20041;-73
2023/09/04 02:33:33;;;;;;;0.60;0.60;;;22.90;78.90;;;;;;4965536;28;20058;-74
2023/09/04 02:35:59;;;;;;;0.50;0.50;;;23.00;78.90;;;;;;4972266;28;20532;-73
2023/09/04 02:38:25;;;;;;;0.60;0.60;;;23.00;79.00;;;;;;4971154;28;20047;-73
2023/09/04 02:40:50;;;;;;;0.63;0.63;;;22.90;78.80;;;;;;4971616;28;20154;-73
2023/09/04 02:43:16;;;;;;;1.38;0.60;;;22.90;78.90;;;;;;4970559;28;20082;-74
2023/09/04 02:45:41;;;;;;;0.68;0.68;;;23.00;79.00;;;;;;4971293;28;20050;-74
2023/09/04 02:48:07;;;;;;;0.60;0.60;;;23.00;79.00;;;;;;4971007;28;20050;-74
2023/09/04 02:50:33;;;;;;;0.60;0.60;;;22.90;78.90;;;;;;4970890;28;20604;-73
2023/09/04 02:52:59;;;;;;;0.60;0.60;;;23.00;79.00;;;;;;4971345;28;20047;-74
2023/09/04 02:55:24;;;;;;;0.50;0.50;;;23.00;78.90;;;;;;4972259;28;20034;-74
2023/09/04 02:57:50;;;;;;;0.50;0.50;;;22.90;78.90;;;;;;4973357;28;20135;-74
2023/09/04 03:00:16;;;;;;;0.68;0.68;;;22.90;78.80;;;;;;4970632;28;20081;-74
2023/09/04 03:02:41;;;;;;;0.70;0.70;;;23.00;78.90;;;;;;4972535;28;20416;-74
2023/09/04 03:05:08;;;;;;;0.70;0.50;;;22.90;78.90;;;;;;4969430;28;20535;-74
2023/09/04 03:07:34;;;;;;;0.57;0.57;;;23.00;78.90;;;;;;4972973;28;20055;-74
2023/09/04 03:09:59;;;;;;;0.68;0.68;;;22.90;78.90;;;;;;4972427;28;20110;-74
2023/09/04 03:12:26;;;;;;;0.50;0.50;;;22.90;78.80;;;;;;4971086;28;20047;-74
2023/09/04 03:14:58;;;;;;;0.40;0.40;;;23.00;79.00;;;;;;4972166;28;20117;-74
2023/09/04 03:17:24;;;;;;;0.50;0.50;;;23.00;78.80;;;;;;4968958;28;20043;-74
2023/09/04 03:19:51;;;;;;;0.68;0.68;;;23.00;78.80;;;;;;4970819;28;20817;-74
2023/09/04 03:22:16;;;;;;;0.50;0.50;;;22.90;78.70;;;;;;4974325;28;20049;-74
2023/09/04 03:24:42;;;;;;;0.40;0.40;;;23.00;78.80;;;;;;4971638;28;20122;-74
2023/09/04 03:27:07;;;;;;;0.40;0.40;;;22.90;78.70;;;;;;4972338;28;20050;-74
2023/09/04 03:29:33;;;;;;;0.50;0.50;;;22.90;78.70;;;;;;4969896;28;20047;-74
2023/09/04 03:31:59;;;;;;;0.82;0.60;;;23.00;78.70;;;;;;4969618;28;20512;-74
2023/09/04 03:34:24;;;;;;;0.40;0.40;;;22.90;78.70;;;;;;4971778;28;20051;-74
2023/09/04 03:36:50;;;;;;;0.60;0.60;;;22.90;78.60;;;;;;4970794;28;20034;-73
2023/09/04 03:39:15;;;;;;;0.40;0.40;;;23.00;78.70;;;;;;4970501;28;20031;-73
2023/09/04 03:41:41;;;;;;;0.50;0.50;;;22.90;78.60;;;;;;4971726;28;20050;-73
2023/09/04 03:44:06;;;;;;;0.60;0.60;;;22.90;79.40;;;;;;4967625;28;20233;-73
2023/09/04 03:46:32;;;;;;;0.50;0.50;;;22.90;78.60;;;;;;4965934;28;20081;-73
2023/09/04 03:48:57;;;;;;;0.55;0.55;;;22.90;78.50;;;;;;4967046;28;21075;-73
2023/09/04 03:51:23;;;;;;;0.40;0.40;;;22.90;78.50;;;;;;4966414;28;20770;-73
2023/09/04 03:53:48;;;;;;;0.60;0.60;;;23.00;78.60;;;;;;4966266;28;20130;-74
2023/09/04 03:56:14;;;;;;;0.52;0.52;;;22.90;78.60;;;;;;4969597;28;20185;-74
2023/09/04 03:58:40;;;;;;;0.40;0.40;;;22.90;78.60;;;;;;4964132;28;20050;-74
2023/09/04 04:01:05;;;;;;;0.50;0.50;;;22.90;78.50;;;;;;4970071;28;20051;-74
2023/09/04 04:03:31;;;;;;;0.60;0.60;;;22.90;78.50;;;;;;4964447;28;20971;-74
2023/09/04 04:05:56;;;;;;;0.60;0.60;;;22.90;79.20;;;;;;4966994;28;20050;-74
2023/09/04 04:08:22;;;;;;;0.50;0.50;;;22.90;78.50;;;;;;4965776;28;20050;-74
2023/09/04 04:10:47;;;;;;;0.70;0.55;;;22.90;78.50;;;;;;4967991;28;20043;-74
2023/09/04 04:13:13;;;;;;;0.40;0.40;;;22.90;78.50;;;;;;4969425;28;20039;-74
2023/09/04 04:15:39;;;;;;;0.38;0.38;;;22.90;78.50;;;;;;4966991;28;20047;-73
2023/09/04 04:18:07;;;;;;;0.60;0.60;;;22.90;78.50;;;;;;4966716;28;20043;-73
2023/09/04 04:20:34;;;;;;;0.57;0.57;;;22.90;78.50;;;;;;4967961;28;20081;-74
2023/09/04 04:23:00;;;;;;;0.60;0.60;;;22.90;78.40;;;;;;4966612;28;20057;-74
2023/09/04 04:25:26;;;;;;;0.45;0.45;;;22.90;78.40;;;;;;4968583;28;20042;-74
2023/09/04 04:27:51;;;;;;;0.55;0.55;;;22.90;78.40;;;;;;4966485;28;20035;-74
2023/09/04 04:30:17;;;;;;;0.40;0.40;;;22.90;78.40;;;;;;4966216;28;20125;-74
2023/09/04 04:32:42;;;;;;;0.68;0.68;;;22.90;78.40;;;;;;4966940;28;20516;-74
2023/09/04 04:35:08;;;;;;;0.52;0.52;;;22.90;78.40;;;;;;4964898;28;20057;-74
2023/09/04 04:37:33;;;;;;;0.50;0.50;;;22.90;78.40;;;;;;4965939;28;20050;-73
2023/09/04 04:40:04;;;;;;;0.50;0.50;;;22.90;78.40;;;;;;4966840;28;20038;-74
2023/09/04 04:42:30;;;;;;;0.60;0.60;;;22.90;78.40;;;;;;4964887;28;20051;-74
2023/09/04 04:44:56;;;;;;;0.40;0.40;;;22.90;78.40;;;;;;4965113;28;20117;-74
2023/09/04 04:47:21;;;;;;;0.60;0.60;;;22.90;78.50;;;;;;4965920;28;20047;-74
2023/09/04 04:49:47;;;;;;;0.52;0.40;;;22.90;78.40;;;;;;4967434;28;20408;-74
2023/09/04 04:52:12;;;;;;;0.30;0.30;;;22.90;78.40;;;;;;4969209;28;20539;-74
2023/09/04 04:54:38;;;;;;;0.50;0.50;;;22.90;78.40;;;;;;4966810;28;20043;-74
2023/09/04 04:57:04;;;;;;;0.52;0.52;;;22.90;78.40;;;;;;4964955;28;20039;-74
2023/09/04 04:59:29;;;;;;;0.40;0.40;;;22.90;78.40;;;;;;4966112;28;20050;-74
2023/09/04 05:01:56;;;;;;;0.32;0.32;;;22.90;78.40;;;;;;4966467;28;20568;-74
2023/09/04 05:04:22;;;;;;;0.50;0.50;;;22.90;78.40;;;;;;4967676;28;20104;-73
2023/09/04 05:06:47;;;;;;;0.80;0.80;;;22.90;78.40;;;;;;4962067;28;20448;-75
2023/09/04 05:09:13;;;;;;;0.98;0.98;;;22.90;77.50;;;;;;4962239;28;20125;-74
2023/09/04 05:11:39;;;;;;;0.80;0.80;;;22.60;78.10;;;;;;4959656;28;20078;-74
2023/09/04 05:14:04;;;;;;;0.98;0.93;;;22.30;79.00;;;;;;4962649;28;20054;-74
2023/09/04 05:16:30;;;;;;;1.10;1.10;;;22.20;79.60;;;;;;4965472;28;20472;-74
2023/09/04 05:18:55;;;;;;;1.10;1.10;;;22.10;80.00;;;;;;4965594;28;20059;-74
2023/09/04 05:21:21;;;;;;;1.00;1.00;;;22.10;80.00;;;;;;4967135;28;20056;-74
2023/09/04 05:23:49;;;;;;;1.25;1.15;;;22.00;80.10;;;;;;4967147;28;20126;-73
2023/09/04 05:26:15;;;;;;;0.90;0.90;;;22.10;80.30;;;;;;4965397;28;20043;-74
2023/09/04 05:28:40;;;;;;;1.17;1.00;;;22.00;80.30;;;;;;4964694;28;20588;-74
2023/09/04 05:31:06;;;;;;;1.10;1.10;;;21.90;80.70;;;;;;4966355;28;20579;-75
2023/09/04 05:33:32;;;;;;;1.00;1.00;;;22.00;80.70;;;;;;4964876;28;20046;-74
2023/09/04 05:35:57;;;;;;;1.05;1.05;;;21.90;80.80;;;;;;4963909;28;20053;-75
2023/09/04 05:38:23;;;;;;;1.10;1.10;;;21.90;81.10;;;;;;4965689;28;20043;-75
2023/09/04 05:40:49;;;;;;;1.10;1.10;;;21.80;81.20;;;;;;4964389;28;20078;-76
2023/09/04 05:43:15;;;;;;;1.33;1.30;;;21.80;81.60;;;;;;4967591;28;20109;-75
2023/09/04 05:45:41;;;;;;;1.35;1.30;;;21.80;81.50;;;;;;4965400;28;20054;-75
2023/09/04 05:48:06;;;;;;;1.20;1.20;;;21.80;81.50;;;;;;4963658;28;20065;-75
2023/09/04 05:50:32;;;;;;;1.40;1.30;;;21.90;81.50;;;;;;4960971;28;20046;-75
2023/09/04 05:52:57;;;;;;;1.10;1.08;;;22.00;81.20;;;;;;4965733;28;20516;-75
2023/09/04 05:55:23;;;;;;;1.10;1.00;;;22.00;81.30;;;;;;4968777;28;20508;-74
2023/09/04 05:57:48;;;;;;;1.25;1.20;;;22.00;81.50;;;;;;4964551;28;20047;-74
2023/09/04 06:00:14;;;;;;;1.42;1.25;;;22.00;81.00;;;;;;4963122;28;20056;-74
2023/09/04 06:02:40;;;;;;;1.60;1.10;;;22.00;81.10;;;;;;4964009;28;20042;-75
2023/09/04 06:05:05;;;;;;;1.20;1.20;;;22.00;80.90;;;;;;4963588;28;20519;-75
2023/09/04 06:07:32;;;;;;;1.23;1.13;;;22.00;81.50;;;;;;4610331;28;9999742;-75
2023/09/04 06:09:57;;;;;;;1.13;1.10;;;21.90;81.60;;;;;;4949238;28;20408;-75
2023/09/04 06:12:23;;;;;;;1.40;1.30;;;21.90;81.60;;;;;;4954162;28;20035;-76
2023/09/04 06:14:48;;;;;;;1.20;1.20;;;21.90;81.70;;;;;;4958689;28;20554;-76
2023/09/04 06:17:14;;;;;;;2.55;1.33;;;22.00;81.40;;;;;;4963346;28;20046;-75
2023/09/04 06:19:39;;;;;;;1.10;1.10;;;22.00;81.50;;;;;;4963579;28;20381;-75
2023/09/04 06:22:05;;;;;;;1.20;1.20;;;21.90;81.80;;;;;;4966242;28;20051;-75
2023/09/04 06:24:32;;;;;;;1.40;1.30;;;21.90;82.20;;;;;;4966009;28;20548;-75
2023/09/04 06:26:57;;;;;;;1.55;1.45;;;21.90;82.20;;;;;;4964300;28;20049;-74
2023/09/04 06:29:23;;;;;;;1.20;1.10;;;21.90;81.70;;;;;;4965187;28;20416;-74
2023/09/04 06:31:49;;;;;;;1.67;1.33;;;22.00;82.00;;;;;;4962038;28;20058;-75
2023/09/04 06:34:14;;;;;;;1.35;1.33;;;22.00;81.80;;;;;;4960799;28;20034;-75
2023/09/04 06:36:40;;;;;;;1.48;1.00;;;22.00;81.80;;;;;;4963637;28;20451;-74
2023/09/04 06:39:06;;;;;;;0.90;0.90;;;22.10;81.70;;;;;;4961792;28;20044;-75
2023/09/04 06:41:32;;;;;;;1.15;0.90;;;22.00;81.90;;;;;;4959020;28;20047;-74
2023/09/04 06:43:58;;;;;;;1.48;1.05;;;22.00;82.00;;;;;;4959606;28;20057;-74
2023/09/04 06:46:23;;;;;;;1.08;1.02;;;22.00;82.00;;;;;;4960382;28;20497;-74
2023/09/04 06:48:49;;;;;;;1.05;1.00;;;22.00;82.40;;;;;;4964798;28;20035;-74
2023/09/04 06:51:16;;;;;;;1.20;1.20;;;22.00;82.50;;;;;;4965697;28;20093;-74
2023/09/04 06:53:42;;;;;;;1.00;1.00;;;22.00;82.30;;;;;;4965648;28;20485;-74
2023/09/04 06:56:07;;;;;;;1.13;1.00;;;22.00;81.90;;;;;;4966310;28;20118;-74
2023/09/04 06:58:33;;;;;;;1.25;1.23;;;22.00;82.20;;;;;;4966587;28;20174;-74
2023/09/04 07:01:04;;;;;;;1.23;1.23;;;22.10;81.80;;;;;;4965280;28;20556;-74
2023/09/04 07:03:29;;;;;;;1.20;1.10;;;22.10;82.00;;;;;;4963296;28;20058;-74
2023/09/04 07:05:55;;;;;;;2.25;1.00;;;22.10;81.60;;;;;;4965660;28;20055;-73
2023/09/04 07:08:21;;;;;;;1.20;1.20;;;22.10;81.60;;;;;;4963515;28;20051;-73
2023/09/04 07:10:47;;;;;;;2.25;1.20;;;22.20;81.40;;;;;;4963093;28;20065;-74
2023/09/04 07:13:13;;;;;;;1.30;1.20;;;22.30;80.40;;;;;;4965311;28;20197;-73
2023/09/04 07:15:40;;;;;;;1.35;1.25;;;22.30;80.20;;;;;;4964891;28;20117;-73
2023/09/04 07:18:06;;;;;;;1.15;1.02;;;22.30;80.30;;;;;;4961621;28;20038;-73
2023/09/04 07:20:32;;;;;;;1.30;1.20;;;22.30;80.30;;;;;;4946318;28;20035;-74
2023/09/04 07:22:57;;;;;;;1.30;1.20;;;22.30;80.10;;;;;;4968746;28;20058;-74
2023/09/04 07:25:23;;;;;;;1.00;1.00;;;22.30;80.30;;;;;;4967838;28;20039;-74
2023/09/04 07:27:48;;;;;;;1.23;1.17;;;22.40;80.30;;;;;;4966043;28;20598;-74
2023/09/04 07:30:14;;;;;;;1.35;1.25;;;22.30;80.20;;;;;;4965974;28;20701;-73
2023/09/04 07:32:40;;;;;;;2.35;1.52;;;22.40;79.90;;;;;;4961764;28;20050;-73
2023/09/04 07:35:06;;;;;;;2.78;1.23;;;22.50;79.10;;;;;;4961357;28;20051;-74
2023/09/04 07:37:31;;;;;;;1.00;1.00;;;22.50;79.10;;;;;;4966270;28;20047;-73
2023/09/04 07:39:57;;;;;;;1.67;1.58;;;22.50;79.40;;;;;;4977002;28;20081;-72
2023/09/04 07:42:23;;;;;;;2.40;1.40;;;22.50;79.80;;;;;;4961150;28;20050;-73
2023/09/04 07:44:48;;;;;;;1.50;1.35;;;22.50;79.80;;;;;;4962354;28;20528;-73
2023/09/04 07:47:14;;;;;;;1.05;1.05;;;22.60;79.40;;;;;;4962177;28;20073;-73
2023/09/04 07:49:39;;;;;;;1.17;1.17;;;22.60;79.00;;;;;;4965362;28;20199;-74
2023/09/04 07:52:05;;;;;;;1.20;1.20;;;22.70;78.80;;;;;;4964671;28;20043;-74
2023/09/04 07:54:31;;;;;;;0.85;0.85;;;22.60;79.00;;;;;;4961996;28;20062;-73
2023/09/04 07:56:59;;;;;;;0.90;0.90;;;22.60;79.40;;;;;;4962191;28;20082;-73
2023/09/04 07:59:24;;;;;;;0.93;0.70;;;22.50;79.40;;;;;;4962907;28;20039;-73
2023/09/04 08:01:50;;;;;;;1.00;1.00;;;22.50;79.70;;;;;;4958385;28;20049;-73
2023/09/04 08:04:15;;;;;;;1.00;1.00;;;22.50;79.70;;;;;;4964291;28;20579;-73
2023/09/04 08:06:41;;;;;;;1.60;1.50;;;22.60;79.70;;;;;;4962718;28;20058;-73
2023/09/04 08:09:07;;;;;;;1.67;0.90;;;22.60;79.50;;;;;;4962167;28;20039;-73
2023/09/04 08:11:32;;;;;;;1.25;1.13;;;22.60;79.60;;;;;;4960713;28;20054;-73
2023/09/04 08:13:58;;;;;;;0.90;0.88;;;22.60;79.60;;;;;;4963235;28;20062;-73
2023/09/04 08:16:23;;;;;;;1.00;0.80;;;22.60;79.60;;;;;;4965872;28;20273;-73
2023/09/04 08:18:49;;;;;;;0.88;0.88;;;22.60;79.80;;;;;;4964399;28;20035;-73
2023/09/04 08:21:14;;;;;;;1.10;1.00;;;22.60;79.70;;;;;;4963095;28;20051;-73
2023/09/04 08:23:41;;;;;;;1.25;1.13;;;22.60;79.80;;;;;;4961283;28;20101;-73
2023/09/04 08:26:07;;;;;;;0.65;0.65;;;22.60;79.80;;;;;;4965279;28;20046;-73
2023/09/04 08:28:32;;;;;;;1.10;1.00;;;22.60;79.70;;;;;;4961907;28;20046;-73
2023/09/04 08:30:58;;;;;;;1.00;1.00;;;22.70;79.60;;;;;;4963930;28;20066;-73
2023/09/04 08:33:23;;;;;;;1.00;1.00;;;22.70;79.30;;;;;;4960674;28;20133;-73
2023/09/04 08:35:49;;;;;;;1.10;1.10;;;22.70;79.20;;;;;;4963184;28;20046;-73
2023/09/04 08:38:15;;;;;;;1.00;1.00;;;22.70;79.20;;;;;;4963311;28;20045;-73
2023/09/04 08:40:41;;;;;;;1.58;1.10;;;22.70;79.10;;;;;;4960292;28;20035;-73
2023/09/04 08:43:09;;;;;;;1.65;0.98;;;22.70;78.80;;;;;;4962480;28;20145;-74
2023/09/04 08:45:41;;;;;;;1.20;1.05;;;22.70;78.70;;;;;;4958968;28;20778;-74
2023/09/04 08:48:07;;;;;;;1.48;1.00;;;22.80;78.70;;;;;;4956952;28;20065;-74
2023/09/04 08:50:32;;;;;;;1.30;1.25;;;22.80;78.60;;;;;;4957393;28;20066;-74
2023/09/04 08:52:58;;;;;;;0.80;0.80;;;22.80;78.70;;;;;;4962462;28;20417;-74
2023/09/04 08:55:24;;;;;;;1.83;1.00;;;22.90;78.70;;;;;;4963264;28;20105;-74
2023/09/04 08:57:49;;;;;;;0.93;0.93;;;22.90;78.40;;;;;;4958178;28;20122;-74
2023/09/04 09:00:16;;;;;;;2.80;0.90;;;22.90;78.10;;;;;;4961185;28;20467;-74
2023/09/04 09:02:45;;;;;;;1.98;1.20;;;23.00;77.80;;;;;;4961435;28;20046;-74
2023/09/04 09:05:12;;;;;;;1.10;1.10;;;23.00;77.70;;;;;;4962977;28;20043;-73
2023/09/04 09:07:39;;;;;;;1.25;1.15;;;23.00;77.10;;;;;;4960461;28;20140;-73
2023/09/04 09:10:05;;;;;;;1.52;1.40;;;23.10;77.10;;;;;;4966152;28;20047;-73
2023/09/04 09:12:31;;;;;;;1.08;1.00;;;23.10;76.90;;;;;;4959514;28;20508;-73
2023/09/04 09:15:00;;;;;;;2.15;1.00;;;23.10;76.80;;;;;;4964088;28;20045;-74
2023/09/04 09:17:25;;;;;;;1.13;1.13;;;23.10;76.70;;;;;;4957407;28;20470;-74
2023/09/04 09:19:51;;;;;;;1.23;0.98;;;23.10;76.70;;;;;;4956705;28;20146;-74
2023/09/04 09:22:18;;;;;;;2.28;0.90;;;23.10;76.50;;;;;;4951328;28;20047;-74
2023/09/04 09:24:50;;;;;;;1.50;0.90;;;23.20;76.50;;;;;;4960674;28;20060;-74
2023/09/04 09:27:19;;;;;;;1.20;1.20;;;23.20;76.20;;;;;;4959245;28;20512;-74
2023/09/04 09:29:46;;;;;;;1.00;1.00;;;23.30;76.20;;;;;;4961001;28;20035;-74
2023/09/04 09:32:12;;;;;;;1.15;1.15;;;23.30;75.90;;;;;;4961100;28;20058;-73
2023/09/04 09:34:38;;;;;;;1.10;1.10;;;23.30;75.50;;;;;;4963618;28;20386;-74
2023/09/04 09:37:05;;;;;;;1.17;1.15;;;23.30;75.30;;;;;;4964018;28;20501;-74
2023/09/04 09:39:31;;;;;;;1.00;1.00;;;23.40;75.00;;;;;;4962075;28;20454;-73
2023/09/04 09:41:59;;;;;;;2.88;1.00;;;23.40;74.30;;;;;;4962984;28;20505;-74
2023/09/04 09:44:33;;;;;;;1.00;1.00;;;23.40;74.30;;;;;;4958058;28;20042;-74
2023/09/04 09:46:59;;;;;;;1.58;1.08;;;23.50;74.10;;;;;;4958101;28;20039;-71
2023/09/04 09:49:25;;;;;;;1.00;1.00;;;23.50;73.40;;;;;;4963102;28;20046;-71
2023/09/04 09:51:54;;;;;;;0.90;0.90;;;23.50;73.60;;;;;;4959391;28;20420;-72
2023/09/04 09:54:45;;;;;;;1.00;1.00;;;23.60;73.40;;;;;;4964307;28;20045;-72
2023/09/04 09:57:13;;;;;;;1.40;0.90;;;23.60;73.60;;;;;;4960107;28;20050;-72
2023/09/04 09:59:44;;;;;;;1.10;1.10;;;23.60;73.50;;;;;;4958818;28;20078;-71
2023/09/04 10:02:10;;;;;;;1.30;1.20;;;23.70;73.40;;;;;;4963425;28;20054;-71
2023/09/04 10:04:36;;;;;;;2.13;1.00;;;23.70;72.90;;;;;;4966808;28;20035;-71
2023/09/04 10:07:02;;;;;;;1.08;1.08;;;23.70;73.00;;;;;;4964441;28;20536;-71
2023/09/04 10:09:29;;;;;;;2.05;1.10;;;23.80;72.40;;;;;;4961155;28;20058;-71
2023/09/04 10:12:02;;;;;;;1.38;1.38;;;23.80;72.30;;;;;;4961076;28;20050;-71
2023/09/04 10:14:31;;;;;;;1.20;1.10;;;23.90;72.20;;;;;;4964925;28;20126;-71
2023/09/04 10:17:00;;;;;;;1.50;1.20;;;23.90;71.10;;;;;;4962316;28;20493;-70
2023/09/04 10:19:29;;;;;;;1.50;1.40;;;24.00;71.20;;;;;;4963806;28;20035;-71
2023/09/04 10:22:03;;;;;;;0.98;0.98;;;24.00;70.90;;;;;;4969338;28;20066;-73
2023/09/04 10:24:35;;;;;;;1.58;1.48;;;24.00;72.30;;;;;;4962205;28;20126;-72
2023/09/04 10:27:04;;;;;;;1.42;1.33;;;23.90;73.80;;;;;;4968367;28;20047;-72
2023/09/04 10:29:30;;;;;;;9.55;2.05;;;23.90;74.30;;;;;;4964430;28;20062;-71
2023/09/04 10:31:56;;;;;;;1.15;1.15;;;23.80;75.00;;;;;;4978965;28;20624;-72
2023/09/04 10:34:21;;;;;;;1.38;1.30;;;23.70;76.00;;;;;;4963573;28;20578;-72
2023/09/04 10:36:47;;;;;;;1.15;1.15;;;23.70;75.80;;;;;;4944509;28;20043;-73
2023/09/04 10:39:12;;;;;;;1.15;1.15;;;23.70;75.70;;;;;;4961757;28;20135;-73
2023/09/04 10:41:38;;;;;;;2.45;1.10;;;23.70;75.80;;;;;;4963173;28;20055;-73
2023/09/04 10:44:04;;;;;;;1.17;1.17;;;23.70;75.80;;;;;;4962295;28;20576;-73
2023/09/04 10:46:29;;;;;;;1.50;1.40;;;23.70;75.50;;;;;;4965632;28;20053;-72
2023/09/04 10:48:55;;;;;;;0.93;0.93;;;23.70;75.80;;;;;;4963413;28;20059;-73
2023/09/04 10:51:34;;;;;;;1.10;1.10;;;23.60;75.80;;;;;;4964055;28;20500;-73
2023/09/04 10:54:12;;;;;;;1.00;1.00;;;23.70;75.70;;;;;;4962637;28;20038;-73
2023/09/04 10:57:00;;;;;;;1.20;1.10;;;23.60;76.40;;;;;;4967580;28;20524;-73
2023/09/04 10:59:26;;;;;;;1.75;1.30;;;23.60;75.80;;;;;;4967244;28;20043;-73
2023/09/04 11:01:52;;;;;;;1.00;1.00;;;23.60;75.90;;;;;;4966137;28;20943;-72
2023/09/04 11:04:35;;;;;;;2.15;1.00;;;23.60;75.70;;;;;;4970667;28;20038;-72
2023/09/04 11:07:18;;;;;;;1.13;1.10;;;23.60;75.40;;;;;;4958516;28;20051;-72
2023/09/04 11:09:44;;;;;;;1.00;1.00;;;23.60;76.00;;;;;;4950263;28;20032;-72
2023/09/04 11:12:11;;;;;;;1.27;1.20;;;23.60;76.20;;;;;;4949563;28;20548;-72
2023/09/04 11:14:46;;;;;;;1.23;1.20;;;23.60;76.30;;;;;;4950601;28;20429;-72
2023/09/04 11:17:14;;;;;;;1.02;1.02;;;23.60;76.50;;;;;;4948047;28;20098;-72
2023/09/04 11:19:39;;;;;;;1.20;1.10;;;23.60;76.30;;;;;;4965004;28;20251;-72
2023/09/04 11:22:05;;;;;;;0.88;0.88;;;23.60;76.40;;;;;;4952305;28;20078;-72
2023/09/04 11:24:30;;;;;;;1.02;0.95;;;23.60;76.40;;;;;;4950356;28;20043;-72
2023/09/04 11:26:56;;;;;;;0.98;0.90;;;23.60;77.10;;;;;;4949187;28;20039;-72
2023/09/04 11:29:22;;;;;;;1.88;1.00;;;23.60;77.10;;;;;;4950685;28;20110;-72
2023/09/04 11:31:47;;;;;;;2.00;0.93;;;23.60;76.40;;;;;;4950318;28;20055;-72
2023/09/04 11:34:23;;;;;;;1.17;1.08;;;23.60;76.50;;;;;;4951308;28;20054;-72
2023/09/04 11:36:48;;;;;;;1.05;1.05;;;23.50;76.50;;;;;;4959448;28;20045;-72
2023/09/04 11:39:14;;;;;;;0.98;0.95;;;23.50;76.50;;;;;;4950092;28;20046;-72
2023/09/04 11:41:39;;;;;;;0.90;0.90;;;23.50;76.60;;;;;;4950518;28;20046;-72
2023/09/04 11:44:06;;;;;;;0.93;0.90;;;23.50;76.50;;;;;;4951810;28;20043;-72
2023/09/04 11:46:32;;;;;;;1.38;0.93;;;23.60;76.40;;;;;;4948477;28;20067;-72
2023/09/04 11:48:57;;;;;;;0.95;0.95;;;23.60;76.70;;;;;;4965042;28;20051;-72
2023/09/04 11:51:23;;;;;;;1.63;0.90;;;23.60;76.60;;;;;;4949873;28;20837;-72
2023/09/04 11:53:48;;;;;;;2.17;1.50;;;23.60;76.60;;;;;;4947378;28;20043;-72
2023/09/04 11:56:14;;;;;;;1.30;1.20;;;23.60;76.50;;;;;;4945818;28;20066;-72
2023/09/04 11:58:40;;;;;;;1.73;1.20;;;23.60;76.30;;;;;;4948357;28;20067;-72
2023/09/04 12:01:06;;;;;;;0.80;0.80;;;23.60;76.70;;;;;;4948660;28;20074;-72
2023/09/04 12:03:31;;;;;;;0.80;0.70;;;23.60;77.60;;;;;;4949677;28;20046;-72
2023/09/04 12:05:57;;;;;;;0.90;0.90;;;23.60;76.50;;;;;;4948112;28;20641;-72
2023/09/04 12:08:22;;;;;;;0.73;0.73;;;23.60;77.30;;;;;;4962084;28;20075;-72
2023/09/04 12:10:50;;;;;;;1.00;1.00;;;23.60;77.30;;;;;;4948001;28;20047;-72
2023/09/04 12:13:15;;;;;;;0.90;0.90;;;23.60;77.20;;;;;;4948794;28;20047;-72
2023/09/04 12:15:41;;;;;;;0.85;0.82;;;23.60;77.20;;;;;;4959902;28;20034;-72
2023/09/04 12:18:07;;;;;;;1.48;1.00;;;23.60;77.20;;;;;;4964754;28;20107;-72
2023/09/04 12:20:40;;;;;;;0.90;0.90;;;23.60;77.10;;;;;;4968592;28;20043;-72
2023/09/04 12:23:05;;;;;;;0.93;0.93;;;23.60;77.20;;;;;;4965041;28;20072;-72
2023/09/04 12:25:37;;;;;;;0.70;0.70;;;23.70;77.30;;;;;;4968148;28;20038;-72
2023/09/04 12:28:05;;;;;;;0.70;0.70;;;23.70;78.00;;;;;;4966481;28;20047;-72
2023/09/04 12:30:34;;;;;;;0.70;0.70;;;23.70;77.30;;;;;;4968221;28;20142;-72
2023/09/04 12:32:59;;;;;;;1.17;1.10;;;23.70;77.30;;;;;;4966608;28;20070;-72
2023/09/04 12:35:25;;;;;;;0.80;0.80;;;23.70;77.10;;;;;;4967128;28;20093;-72
2023/09/04 12:37:52;;;;;;;1.10;1.00;;;23.70;77.20;;;;;;4966225;28;20058;-73
2023/09/04 12:40:19;;;;;;;0.93;0.93;;;23.70;77.20;;;;;;4968962;28;20034;-72
2023/09/04 12:42:44;;;;;;;0.80;0.80;;;23.70;77.30;;;;;;4967543;28;20126;-72
2023/09/04 12:45:10;;;;;;;0.90;0.90;;;23.70;77.30;;;;;;4965828;28;20218;-72